Cook, Washington
Current Conditions -  °F | °C
As of 4:07 PM on Saturday 20 Dec 2014 (Local Time) from KDLS Reporting Station
Light Rain Light Rain  
Wind Chill: 40°   Ceiling: 800
Heat Index: 43°   Visibility: 9mi
Dew Point: 41°   Wind: 5mph
Humidity: 93%   Direction: 330°NNW
Pressure: 29.67"   Gusts: NA
Location:  45.6752°N, 121.103°W
Report Text: KDLS 210007Z AUTO 33004KT 9SM -RA BKN008 OVC075 06/05 A2967 RMK AO2 CIG 006V019 P0001 T00610050
Loading
Personal Weather Stations






























Interactive Weather Map New forecast layout! Learn more

10-Day Weather Forecast

Advertisements
Track Severe Weather on mobile